Latest Coastal Weather Observations for Roebourne Airport

IDW60701

Issued at 10:23 am WST Tuesday 28 March 2017 (issued every 10 minutes, with the page automatically refreshed every 10 minutes)

About coastal observations | Map of coastal stations | Coastal observations for WA | Marine services | Other Formats
Station Details ID: 004090 Name: ROEBOURNE AERO Lat: -20.76 Lon: 117.16 Height: 10.7 m
Data from the previous 72 hours. | See also: Recent months at Roebourne Airport
Date/Time
WST
Temp
°C
Wind Pressure Rain since
9am
mm
Weather Cloud Vis
km
Sea
Height
m
Swell
Dir  Spd
kts
Gust
kts
hPa Trend Height
m
Period
s
Dir
28/10:00am 31.5 ENE 16 21 1011.7 - 0.0 - - - - - - -
28/09:30am 31.1 ENE 15 20 1011.7 - 0.0 - - - - - - -
28/09:00am 30.5 E 12 17 1011.7 - 0.0 - - - - - - -
28/08:30am 29.6 E 13 18 1011.5 - 0.0 - - - - - - -
28/08:00am 28.8 ESE 11 13 1011.3 - 0.0 - - - - - - -
28/07:30am 27.6 ESE 7 9 1011.1 - 0.0 - - - - - - -
28/07:00am 26.2 E 2 4 1010.5 - 0.0 - - - - - - -
28/06:30am 25.3 CALM 0 0 1010.2 - 0.0 - - - - - - -
28/06:00am 25.0 S 1 3 1010.1 - 0.0 - - - - - - -
28/05:30am 25.1 ESE 5 7 1010.2 - 0.0 - - - - - - -
28/05:00am 25.2 ESE 5 6 1010.0 - 0.0 - - - - - - -
28/04:30am 25.4 ESE 3 4 1010.0 - 0.0 - - - - - - -
28/04:00am 25.2 ESE 4 5 1009.9 - 0.0 - - - - - - -
28/03:30am 25.5 SSE 2 4 1009.9 - 0.0 - - - - - - -
28/03:00am 25.5 SSE 3 4 1009.8 - 0.0 - - - - - - -
28/02:30am 25.5 SSE 5 5 1009.7 - 0.0 - - - - - - -
28/02:00am 25.5 SE 4 5 1010.0 - 0.0 - - - - - - -
28/01:30am 25.7 SE 5 7 1010.1 - 0.0 - - - - - - -
28/01:00am 25.9 ESE 5 6 1010.5 - 0.0 - - - - - - -
28/12:30am 26.1 ESE 4 5 1010.5 - 0.0 - - - - - - -
28/12:00am 26.4 ESE 7 9 1010.6 - 0.0 - - - - - - -
 
Date/Time
WST
Temp
°C
Wind Pressure Rain since
9am
mm
Weather Cloud Vis
km
Sea
Height
m
Swell
Dir  Spd
kts
Gust
kts
hPa Trend Height
m
Period
s
Dir
27/11:30pm 26.6 ESE 10 13 1011.2 - 0.0 - - - - - - -
27/11:00pm 26.3 ESE 5 6 1010.9 - 0.0 - - - - - - -
27/10:30pm 26.5 ESE 5 6 1011.0 - 0.0 - - - - - - -
27/10:00pm 26.5 ESE 6 7 1011.5 - 0.0 - - - - - - -
27/09:30pm 26.6 ESE 5 6 1011.2 - 0.0 - - - - - - -
27/09:00pm 26.8 SE 4 5 1011.0 - 0.0 - - - - - - -
27/08:30pm 27.0 SE 4 4 1010.9 - 0.0 - - - - - - -
27/08:00pm 27.2 SSE 6 7 1010.4 - 0.0 - - - - - - -
27/07:30pm 27.3 SSE 6 9 1009.8 - 0.0 - - - - - - -
27/07:00pm 27.5 SSE 3 5 1009.2 - 0.0 - - - - - - -
27/06:30pm 27.8 SE 6 7 1009.2 - 0.0 - - - - - - -
27/06:00pm 28.3 SE 9 13 1009.5 - 0.0 - - - - - - -
27/05:30pm 27.9 ESE 13 16 1009.4 - 0.0 - - - - - - -
27/05:00pm 28.9 ESE 14 18 1009.0 - 0.0 - - - - - - -
27/04:30pm 29.2 E 14 17 1009.0 - 0.0 - - - - - - -
27/04:00pm 27.8 NE 11 14 1008.8 - 0.0 - - - - - - -
27/03:35pm 27.4 NNE 19 32 1009.0 - 0.0 - - - - - - -
27/03:30pm 27.4 NNE 26 42 1008.6 - 0.0 - - - - - - -
27/03:21pm 28.9 NE 28 42 1009.2 - 0.0 - - - - - - -
27/03:00pm 28.4 ENE 34 45 1010.2 - 0.0 - - - - - - -
27/02:50pm 31.2 NE 21 43 1010.1 - 0.0 - - - - - - -
27/02:30pm 33.9 NNE 13 20 1008.6 - 0.0 - - - - - - -
27/02:00pm 34.3 NNE 12 17 1008.7 - 0.0 - - - - - - -
27/01:30pm 33.8 NNE 11 16 1008.6 - 0.0 - - - - - - -
27/01:00pm 34.6 NNE 11 15 1009.0 - 0.0 - - - - - - -
27/12:30pm 34.6 NNE 11 15 1009.5 - 0.0 - - - - - - -
27/12:00pm 34.4 NE 9 14 1010.0 - 0.0 - - - - - - -
27/11:30am 34.1 NE 9 14 1010.4 - 0.0 - - - - - - -
27/11:00am 34.1 NE 10 14 1010.4 - 0.0 - - - - - - -
27/10:30am 33.7 ENE 11 14 1010.6 - 0.0 - - - - - - -
27/10:00am 33.5 E 10 12 1010.8 - 0.0 - - - - - - -
27/09:30am 33.2 E 10 13 1010.6 - 0.0 - - - - - - -
27/09:00am 32.3 E 8 11 1010.5 - 0.0 - - - - - - -
27/08:30am 32.0 E 8 11 1010.2 - 0.0 - - - - - - -
27/08:00am 30.9 SSE 5 6 1009.8 - 0.0 - - - - - - -
27/07:30am 29.0 S 3 4 1009.2 - 0.0 - - - - - - -
27/07:00am 27.2 S 3 5 1009.1 - 0.0 - - - - - - -
27/06:30am 26.2 SSW 6 7 1008.7 - 0.0 - - - - - - -
27/06:00am 26.8 SSW 4 5 1008.4 - 0.0 - - - - - - -
27/05:30am 27.0 W 3 3 1008.2 - 0.0 - - - - - - -
27/05:00am 27.1 WSW 3 4 1008.0 - 0.0 - - - - - - -
27/04:30am 27.0 W 4 5 1008.0 - 0.0 - - - - - - -
27/04:00am 27.1 WSW 5 5 1008.0 - 0.0 - - - - - - -
27/03:30am 26.8 SW 5 6 1008.1 - 0.0 - - - - - - -
27/03:00am 27.2 W 3 4 1008.4 - 0.0 - - - - - - -
27/02:30am 27.3 WNW 3 4 1008.7 - 0.0 - - - - - - -
27/02:00am 27.1 SSW 5 6 1008.9 - 0.0 - - - - - - -
27/01:30am 27.5 WSW 4 4 1009.0 - 0.0 - - - - - - -
27/01:00am 27.9 WSW 4 5 1009.3 - 0.0 - - - - - - -
27/12:30am 27.8 SW 6 7 1009.5 - 0.0 - - - - - - -
27/12:00am 28.0 SW 6 7 1009.9 - 0.0 - - - - - - -
 
Date/Time
WST
Temp
°C
Wind Pressure Rain since
9am
mm
Weather Cloud Vis
km
Sea
Height
m
Swell
Dir  Spd
kts
Gust
kts
hPa Trend Height
m
Period
s
Dir
26/11:30pm 28.1 SW 5 6 1009.8 - 0.0 - - - - - - -
26/11:00pm 28.7 WSW 6 7 1009.9 - 0.0 - - - - - - -
26/10:30pm 28.6 WSW 6 8 1009.8 - 0.0 - - - - - - -
26/10:00pm 29.1 WSW 6 8 1009.7 - 0.0 - - - - - - -
26/09:30pm 29.1 W 6 8 1009.6 - 0.0 - - - - - - -
26/09:00pm 29.2 W 5 6 1009.2 - 0.0 - - - - - - -
26/08:30pm 29.8 W 7 9 1008.9 - 0.0 - - - - - - -
26/08:00pm 29.7 W 5 7 1008.6 - 0.0 - - - - - - -
26/07:30pm 29.8 NW 6 7 1008.2 - 0.0 - - - - - - -
26/07:00pm 30.2 NW 7 8 1007.8 - 0.0 - - - - - - -
26/06:30pm 30.6 NW 7 8 1007.4 - 0.0 - - - - - - -
26/06:00pm 31.7 NNW 7 9 1007.2 - 0.0 - - - - - - -
26/05:30pm 32.5 NNW 11 13 1007.0 - 0.0 - - - - - - -
26/05:00pm 33.6 N 10 13 1006.9 - 0.0 - - - - - - -
26/04:30pm 34.4 NNE 9 11 1006.7 - 0.0 - - - - - - -
26/04:00pm 34.8 NNE 8 11 1006.5 - 0.0 - - - - - - -
26/03:30pm 34.7 NNE 8 12 1006.2 - 0.0 - - - - - - -
26/03:00pm 34.9 NNE 9 13 1006.2 - 0.0 - - - - - - -
26/02:30pm 35.2 NE 9 13 1006.3 - 0.0 - - - - - - -
26/02:00pm 35.0 NE 8 13 1006.3 - 0.0 - - - - - - -
26/01:30pm 35.4 NE 8 11 1006.6 - 0.0 - - - - - - -
26/01:00pm 35.4 NE 7 11 1006.8 - 0.0 - - - - - - -
26/12:30pm 35.2 ENE 7 11 1007.2 - 0.0 - - - - - - -
26/12:00pm 34.8 E 4 6 1007.6 - 0.0 - - - - - - -
26/11:30am 34.5 ENE 8 11 1007.9 - 0.0 - - - - - - -
26/11:00am 34.2 ESE 6 10 1008.0 - 0.0 - - - - - - -
26/10:30am 34.1 SE 7 10 1008.3 - 0.0 - - - - - - -
26/10:00am 33.4 S 5 7 1008.3 - 0.0 - - - - - - -
26/09:30am 32.8 SE 6 8 1008.4 - 0.0 - - - - - - -
26/09:00am 31.6 S 6 8 1008.4 - 0.0 - - - - - - -
26/08:30am 30.4 S 6 7 1008.4 - 0.0 - - - - - - -
26/08:00am 28.4 SSW 5 7 1008.4 - 0.0 - - - - - - -
26/07:30am 26.8 CALM 0 0 1008.4 - 0.0 - - - - - - -
26/07:00am 25.1 CALM 0 0 1008.1 - 0.0 - - - - - - -
26/06:30am 23.7 CALM 0 0 1008.1 - 0.0 - - - - - - -
26/06:00am 23.7 CALM 0 0 1007.9 - 0.0 - - - - - - -
26/05:30am 24.0 CALM 0 1 1007.7 - 0.0 - - - - - - -
26/05:00am 24.9 SW 6 7 1007.5 - 0.0 - - - - - - -
26/04:30am 24.9 WSW 6 7 1007.5 - 0.0 - - - - - - -
26/04:00am 25.0 WNW 3 4 1007.6 - 0.0 - - - - - - -
26/03:30am 25.4 W 5 5 1007.5 - 0.0 - - - - - - -
26/03:00am 25.7 W 4 6 1007.4 - 0.0 - - - - - - -
26/02:30am 26.0 SW 6 8 1007.4 - 0.0 - - - - - - -
26/02:00am 25.9 SW 5 7 1007.6 - 0.0 - - - - - - -
26/01:30am 26.1 WSW 4 5 1008.0 - 0.0 - - - - - - -
26/01:00am 26.6 WSW 5 7 1008.1 - 0.0 - - - - - - -
26/12:30am 26.8 WSW 6 9 1008.5 - 0.0 - - - - - - -
26/12:00am 27.1 WSW 7 10 1008.4 - 0.0 - - - - - - -
 
Date/Time
WST
Temp
°C
Wind Pressure Rain since
9am
mm
Weather Cloud Vis
km
Sea
Height
m
Swell
Dir  Spd
kts
Gust
kts
hPa Trend Height
m
Period
s
Dir
25/11:30pm 26.9 WSW 5 7 1008.4 - 0.0 - - - - - - -
25/11:00pm 26.9 WSW 6 8 1008.6 - 0.0 - - - - - - -
25/10:30pm 27.3 WSW 7 9 1008.7 - 0.0 - - - - - - -
25/10:00pm 27.0 W 6 7 1008.8 - 0.0 - - - - - - -
25/09:30pm 27.5 W 7 8 1008.6 - 0.0 - - - - - - -
25/09:00pm 27.3 W 5 6 1008.4 - 0.0 - - - - - - -
25/08:30pm 27.5 WNW 5 5 1008.1 - 0.0 - - - - - - -
25/08:00pm 28.0 W 5 6 1007.8 - 0.0 - - - - - - -
25/07:30pm 28.5 WNW 5 7 1007.3 - 0.0 - - - - - - -
25/07:00pm 28.8 NW 7 8 1006.8 - 0.0 - - - - - - -
25/06:30pm 29.6 NW 7 9 1006.3 - 0.0 - - - - - - -
25/06:00pm 30.9 WNW 9 11 1006.0 - 0.0 - - - - - - -
25/05:30pm 31.9 NW 9 11 1005.6 - 0.0 - - - - - - -
25/05:00pm 32.5 NW 8 11 1005.4 - 0.0 - - - - - - -
25/04:30pm 33.1 NW 9 12 1005.4 - 0.0 - - - - - - -
25/04:00pm 32.9 N 8 12 1005.4 - 0.0 - - - - - - -
25/03:30pm 33.0 NNW 9 12 1005.5 - 0.0 - - - - - - -
25/03:00pm 33.4 NNW 10 12 1005.5 - 0.0 - - - - - - -
25/02:30pm 33.6 N 9 12 1005.7 - 0.0 - - - - - - -
25/02:00pm 33.2 NNE 9 11 1005.8 - 0.0 - - - - - - -
25/01:30pm 32.9 NNE 9 13 1006.1 - 0.0 - - - - - - -
25/01:00pm 32.7 NNE 9 13 1006.5 - 0.0 - - - - - - -
25/12:30pm 32.5 NNE 8 11 1007.0 - 0.0 - - - - - - -
25/12:00pm 32.6 N 8 11 1007.4 - 0.0 - - - - - - -
25/11:30am 32.8 NE 7 10 1007.7 - 0.0 - - - - - - -
25/11:00am 32.2 ENE 5 8 1008.1 - 0.0 - - - - - - -
25/10:30am 31.6 NE 6 10 1008.3 - 0.0 - - - - - - -

Other Formats:

Comma delimited format used in spreadsheet applications
http://www.bom.gov.au/fwo/IDW60701/IDW60701.94308.axf

JavaScript Object Notation format (JSON) in row-major order
http://www.bom.gov.au/fwo/IDW60701/IDW60701.94308.json